createdAt,value
2022-10-12T00:00:38.954Z,100245.56
2022-10-12T00:03:08.516Z,100236.69
2022-10-12T00:05:38.292Z,100235.56
2022-10-12T00:08:08.101Z,100233.16
2022-10-12T00:10:42.388Z,100229.94
2022-10-12T00:13:12.459Z,100228.84
2022-10-12T00:15:42.447Z,100226.28
2022-10-12T00:18:12.344Z,100218.22
2022-10-12T00:20:41.920Z,100223.31
2022-10-12T00:23:12.082Z,100223.47
2022-10-12T00:25:43.083Z,100223.44
2022-10-12T00:28:12.644Z,100221.75
2022-10-12T00:30:42.585Z,100224.03
2022-10-12T00:33:12.176Z,100223.88
2022-10-12T00:35:41.976Z,100228.00
2022-10-12T00:38:11.907Z,100221.06
2022-10-12T00:40:42.961Z,100222.88
2022-10-12T00:43:26.004Z,100235.47
2022-10-12T00:45:55.661Z,100231.78
2022-10-12T00:48:25.767Z,100229.28
2022-10-12T00:50:55.999Z,100234.47
2022-10-12T00:53:27.548Z,100239.31
2022-10-12T00:56:00.619Z,100231.66
2022-10-12T00:58:31.588Z,100235.91
2022-10-12T01:01:02.396Z,100230.25
2022-10-12T01:03:32.664Z,100233.06
2022-10-12T01:06:02.472Z,100233.91
2022-10-12T01:08:32.106Z,100235.03
2022-10-12T01:11:03.164Z,100234.34
2022-10-12T01:13:33.503Z,100235.91
2022-10-12T01:16:06.586Z,100230.41
2022-10-12T01:18:41.431Z,100234.34
2022-10-12T01:21:15.181Z,100230.66
2022-10-12T01:24:02.666Z,100235.03
2022-10-12T01:26:59.416Z,100240.41
2022-10-12T01:29:40.460Z,100247.63
2022-10-12T01:32:15.010Z,100242.13
2022-10-12T01:34:46.271Z,100245.78
2022-10-12T01:37:19.911Z,100242.13
2022-10-12T01:39:53.351Z,100249.78
2022-10-12T01:42:26.735Z,100243.53
2022-10-12T01:45:02.509Z,100252.31
2022-10-12T01:47:34.131Z,100247.47
2022-10-12T01:50:04.550Z,100246.34
2022-10-12T01:52:36.428Z,100251.19
2022-10-12T01:55:18.098Z,100255.41
2022-10-12T01:58:11.655Z,100259.94
2022-10-12T02:00:43.894Z,100254.03
2022-10-12T02:03:21.467Z,100264.06
2022-10-12T02:05:53.173Z,100258.13
2022-10-12T02:08:25.628Z,100263.19
2022-10-12T02:10:56.900Z,100262.63
2022-10-12T02:13:29.458Z,100256.56
2022-10-12T02:16:00.535Z,100259.53
2022-10-12T02:18:31.753Z,100261.09
2022-10-12T02:21:01.797Z,100262.50
2022-10-12T02:23:31.349Z,100260.94
2022-10-12T02:26:02.883Z,100253.19
2022-10-12T02:28:35.666Z,100263.78
2022-10-12T02:31:09.804Z,100265.75
2022-10-12T02:33:44.047Z,100266.03
2022-10-12T02:36:16.941Z,100259.41
2022-10-12T02:38:49.598Z,100266.75
2022-10-12T02:41:22.434Z,100262.38
2022-10-12T02:43:55.155Z,100261.09
2022-10-12T02:46:29.853Z,100261.38
2022-10-12T02:49:01.207Z,100266.19
2022-10-12T02:51:31.152Z,100268.44
2022-10-12T02:54:01.634Z,100274.34
2022-10-12T02:56:31.252Z,100280.16
2022-10-12T02:59:01.138Z,100273.25
2022-10-12T03:01:31.052Z,100283.13
2022-10-12T03:04:02.703Z,100281.00
2022-10-12T03:06:32.435Z,100282.84
2022-10-12T03:09:02.096Z,100282.69
2022-10-12T03:11:31.817Z,100275.63
2022-10-12T03:14:02.262Z,100279.16
2022-10-12T03:16:32.281Z,100273.22
2022-10-12T03:19:03.263Z,100281.84
2022-10-12T03:21:32.882Z,100279.72
2022-10-12T03:24:02.551Z,100278.00
2022-10-12T03:26:32.082Z,100278.44
2022-10-12T03:29:01.735Z,100282.25
2022-10-12T03:31:31.441Z,100279.56
2022-10-12T03:34:01.104Z,100279.69
2022-10-12T03:36:32.273Z,100278.28
2022-10-12T03:39:02.102Z,100276.59
2022-10-12T03:41:31.660Z,100275.75
2022-10-12T03:44:01.397Z,100288.75
2022-10-12T03:46:31.023Z,100283.94
2022-10-12T03:49:00.886Z,100289.31
2022-10-12T03:51:30.539Z,100291.84
2022-10-12T03:54:01.486Z,100291.00
2022-10-12T03:56:31.022Z,100294.13
2022-10-12T03:59:00.569Z,100292.69
2022-10-12T04:01:30.468Z,100288.47
2022-10-12T04:04:00.132Z,100293.22
2022-10-12T04:06:29.967Z,100294.22
2022-10-12T04:09:01.807Z,100294.38
2022-10-12T04:11:31.662Z,100293.84
2022-10-12T04:14:01.875Z,100294.66
2022-10-12T04:16:31.741Z,100288.75
2022-10-12T04:19:01.379Z,100293.66
2022-10-12T04:21:32.126Z,100297.91
2022-10-12T04:24:03.153Z,100298.06
2022-10-12T04:26:32.938Z,100297.63
2022-10-12T04:29:02.689Z,100294.13
2022-10-12T04:31:32.443Z,100292.81
2022-10-12T04:34:02.180Z,100291.81
2022-10-12T04:36:31.804Z,100283.38
2022-10-12T04:39:01.526Z,100289.88
2022-10-12T04:41:33.029Z,100281.13
2022-10-12T04:44:02.697Z,100293.84
2022-10-12T04:46:32.337Z,100291.84
2022-10-12T04:49:01.971Z,100294.66
2022-10-12T04:51:31.930Z,100297.22
2022-10-12T04:54:02.079Z,100292.69
2022-10-12T04:56:33.249Z,100296.94
2022-10-12T04:59:02.981Z,100302.00
2022-10-12T05:01:32.858Z,100307.41
2022-10-12T05:04:02.737Z,100309.09
2022-10-12T05:06:32.589Z,100318.00
2022-10-12T05:09:02.126Z,100319.84
2022-10-12T05:11:33.259Z,100324.66
2022-10-12T05:14:03.660Z,100323.69
2022-10-12T05:16:33.840Z,100325.50
2022-10-12T05:19:03.455Z,100332.41
2022-10-12T05:21:33.139Z,100326.09
2022-10-12T05:24:02.749Z,100329.91
2022-10-12T05:26:33.867Z,100329.91
2022-10-12T05:29:03.825Z,100333.97
2022-10-12T05:31:33.403Z,100331.03
2022-10-12T05:34:03.132Z,100339.34
2022-10-12T05:36:36.610Z,100343.59
2022-10-12T05:39:09.882Z,100341.34
2022-10-12T05:42:05.379Z,100345.00
2022-10-12T05:44:49.582Z,100351.50
2022-10-12T05:47:25.151Z,100351.78
2022-10-12T05:50:02.427Z,100358.03
2022-10-12T05:52:38.258Z,100367.22
2022-10-12T05:55:13.538Z,100362.53
2022-10-12T05:58:07.598Z,100366.63
2022-10-12T06:00:43.919Z,100361.00
2022-10-12T06:03:19.856Z,100373.00
2022-10-12T06:05:54.558Z,100371.16
2022-10-12T06:08:34.758Z,100373.56
2022-10-12T06:11:19.005Z,100370.88
2022-10-12T06:14:05.234Z,100375.13
2022-10-12T06:16:39.604Z,100377.69
2022-10-12T06:19:18.988Z,100384.75
2022-10-12T06:21:51.477Z,100387.59
2022-10-12T06:24:25.142Z,100393.25
2022-10-12T06:27:02.772Z,100386.31
2022-10-12T06:29:39.665Z,100394.94
2022-10-12T06:32:11.889Z,100395.53
2022-10-12T06:34:52.951Z,100392.56
2022-10-12T06:37:48.674Z,100393.94
2022-10-12T06:40:16.130Z,100393.94
2022-10-12T06:42:46.386Z,100391.97
2022-10-12T06:45:18.907Z,100397.63
2022-10-12T06:47:49.017Z,100397.91
2022-10-12T06:50:18.729Z,100401.31
2022-10-12T06:52:48.387Z,100413.75
2022-10-12T06:55:18.058Z,100402.16
2022-10-12T06:57:47.963Z,100404.69
2022-10-12T07:00:19.320Z,100408.59
2022-10-12T07:02:50.128Z,100405.50
2022-10-12T07:05:21.042Z,100401.47
2022-10-12T07:07:50.936Z,100398.66
2022-10-12T07:10:20.894Z,100401.19
2022-10-12T07:12:51.557Z,100401.00
2022-10-12T07:15:23.244Z,100404.84
2022-10-12T07:17:52.914Z,100403.53
2022-10-12T07:20:22.638Z,100398.69
2022-10-12T07:22:53.512Z,100403.59
2022-10-12T07:25:23.310Z,100401.63
2022-10-12T07:27:52.870Z,100404.25
2022-10-12T07:30:39.908Z,100396.88
2022-10-12T07:33:09.636Z,100409.59
2022-10-12T07:35:56.919Z,100405.03
2022-10-12T07:38:29.552Z,100403.59
2022-10-12T07:41:00.290Z,100402.84
2022-10-12T07:43:31.782Z,100406.13
2022-10-12T07:46:04.437Z,100410.22
2022-10-12T07:48:34.198Z,100408.25
2022-10-12T07:51:04.697Z,100416.47
2022-10-12T07:53:34.875Z,100411.78
2022-10-12T07:56:05.411Z,100408.09
2022-10-12T07:58:35.471Z,100413.84
2022-10-12T08:01:07.017Z,100411.56
2022-10-12T08:03:37.008Z,100411.63
2022-10-12T08:06:10.720Z,100402.78
2022-10-12T08:08:40.374Z,100406.50
2022-10-12T08:11:10.826Z,100403.34
2022-10-12T08:13:41.711Z,100407.63
2022-10-12T08:16:14.410Z,100409.88
2022-10-12T08:18:44.589Z,100403.84
2022-10-12T08:21:15.081Z,100409.03
2022-10-12T08:23:45.230Z,100398.16
2022-10-12T08:26:15.811Z,100404.88
2022-10-12T08:28:45.914Z,100394.88
2022-10-12T08:31:17.741Z,100397.78
2022-10-12T08:33:47.481Z,100399.56
2022-10-12T08:36:17.496Z,100400.41
2022-10-12T08:38:53.906Z,100390.63
2022-10-12T08:41:47.327Z,100398.34
2022-10-12T08:44:37.828Z,100399.72
2022-10-12T08:47:12.508Z,100402.28
2022-10-12T08:49:47.437Z,100409.50
2022-10-12T08:52:24.823Z,100398.13
2022-10-12T08:54:54.706Z,100397.03
2022-10-12T08:57:24.337Z,100396.94
2022-10-12T08:59:54.124Z,100397.81
2022-10-12T09:02:36.273Z,100401.19
2022-10-12T09:05:09.119Z,100405.03
2022-10-12T09:07:41.256Z,100405.41
2022-10-12T09:10:19.685Z,100394.03
2022-10-12T09:12:56.031Z,100398.34
2022-10-12T09:15:29.436Z,100385.41
2022-10-12T09:18:01.621Z,100392.50
2022-10-12T09:20:32.831Z,100390.31
2022-10-12T09:23:04.491Z,100386.38
2022-10-12T09:25:34.726Z,100391.81
2022-10-12T09:28:14.472Z,100396.59
2022-10-12T09:30:48.191Z,100393.91
2022-10-12T09:33:23.033Z,100393.63
2022-10-12T09:35:54.069Z,100389.28
2022-10-12T09:38:24.532Z,100392.56
2022-10-12T09:40:54.252Z,100394.25
2022-10-12T09:43:24.219Z,100395.63
2022-10-12T09:45:54.262Z,100388.00
2022-10-12T09:48:26.371Z,100399.13
2022-10-12T09:50:57.108Z,100387.34
2022-10-12T09:53:28.765Z,100392.97
2022-10-12T09:55:59.800Z,100390.63
2022-10-12T09:58:30.112Z,100382.53
2022-10-12T10:01:16.398Z,100383.06
2022-10-12T10:03:48.574Z,100377.19
2022-10-12T10:06:23.720Z,100373.84
2022-10-12T10:08:53.397Z,100375.03
2022-10-12T10:11:24.384Z,100370.03
2022-10-12T10:13:55.099Z,100366.78
2022-10-12T10:16:26.895Z,100360.00
2022-10-12T10:18:58.758Z,100359.41
2022-10-12T10:21:30.320Z,100357.41
2022-10-12T10:24:01.136Z,100364.16
2022-10-12T10:26:32.320Z,100359.31
2022-10-12T10:29:16.716Z,100348.53
2022-10-12T10:31:48.285Z,100344.00
2022-10-12T10:34:24.218Z,100334.56
2022-10-12T10:36:55.977Z,100332.69
2022-10-12T10:39:27.019Z,100329.16
2022-10-12T10:41:56.739Z,100331.72
2022-10-12T10:44:28.047Z,100328.66
2022-10-12T10:46:59.031Z,100320.91
2022-10-12T10:49:37.785Z,100316.84
2022-10-12T10:52:08.771Z,100312.47
2022-10-12T10:54:39.240Z,100317.00
2022-10-12T10:57:13.086Z,100318.53
2022-10-12T10:59:48.736Z,100311.97
2022-10-12T11:02:24.696Z,100314.97
2022-10-12T11:04:59.391Z,100305.19
2022-10-12T11:07:32.129Z,100311.09
2022-10-12T11:10:04.167Z,100297.25
2022-10-12T11:12:37.096Z,100294.72
2022-10-12T11:15:09.500Z,100291.84
2022-10-12T11:17:41.305Z,100301.47
2022-10-12T11:20:26.496Z,100293.72
2022-10-12T11:22:58.897Z,100290.19
2022-10-12T11:25:32.144Z,100289.66
2022-10-12T11:28:02.238Z,100286.44
2022-10-12T11:30:37.186Z,100283.72
2022-10-12T11:33:09.593Z,100280.84
2022-10-12T11:35:42.647Z,100278.50
2022-10-12T11:38:17.343Z,100273.91
2022-10-12T11:43:41.868Z,100260.09
2022-10-12T11:46:13.538Z,100248.91
2022-10-12T11:48:47.693Z,100267.16
2022-10-12T11:51:18.634Z,100251.56
2022-10-12T11:53:52.340Z,100249.19
2022-10-12T11:56:24.079Z,100253.06
2022-10-12T11:59:01.178Z,100248.19
2022-10-12T12:01:40.969Z,100246.31
2022-10-12T12:04:42.598Z,100247.66
2022-10-12T12:07:31.830Z,100244.81
2022-10-12T12:10:02.840Z,100245.50
2022-10-12T12:12:33.364Z,100238.41
2022-10-12T12:15:07.732Z,100249.72
2022-10-12T12:17:38.881Z,100238.91
2022-10-12T12:20:23.240Z,100248.38
2022-10-12T12:22:55.089Z,100239.75
2022-10-12T12:25:29.409Z,100237.22
2022-10-12T12:28:00.647Z,100232.88
2022-10-12T12:30:35.974Z,100242.63
2022-10-12T12:33:07.914Z,100245.00
2022-10-12T12:35:39.703Z,100245.88
2022-10-12T12:38:21.075Z,100233.91
2022-10-12T12:41:09.170Z,100237.44
2022-10-12T12:44:02.445Z,100242.00
2022-10-12T12:46:50.587Z,100231.19
2022-10-12T12:49:28.295Z,100230.03
2022-10-12T12:51:59.858Z,100234.41
2022-10-12T12:54:29.948Z,100229.97
2022-10-12T12:57:14.381Z,100231.00
2022-10-12T13:00:04.488Z,100230.19
2022-10-12T13:02:53.307Z,100226.13
2022-10-12T13:05:41.069Z,100214.97
2022-10-12T13:08:25.080Z,100226.78
2022-10-12T13:11:06.571Z,100226.63
2022-10-12T13:13:49.651Z,100229.31
2022-10-12T13:17:30.682Z,100229.31
2022-10-12T13:19:36.956Z,100227.13
2022-10-12T13:22:12.203Z,100221.03
2022-10-12T13:24:45.703Z,100223.41
2022-10-12T13:27:19.383Z,100219.16
2022-10-12T13:29:54.294Z,100213.09
2022-10-12T13:32:30.499Z,100221.91
2022-10-12T13:35:06.206Z,100223.44
2022-10-12T13:37:36.271Z,100220.91
2022-10-12T13:40:06.408Z,100223.97
2022-10-12T13:42:36.650Z,100224.78
2022-10-12T13:45:08.978Z,100218.88
2022-10-12T13:47:43.166Z,100215.84
2022-10-12T13:50:19.777Z,100219.03
2022-10-12T13:52:54.533Z,100221.44
2022-10-12T13:55:26.793Z,100225.66
2022-10-12T13:57:56.386Z,100216.84
2022-10-12T14:00:27.497Z,100218.22
2022-10-12T14:02:58.739Z,100208.41
2022-10-12T14:05:30.665Z,100214.50
2022-10-12T14:08:03.151Z,100202.69
2022-10-12T14:10:34.153Z,100217.19
2022-10-12T14:13:05.607Z,100219.25
2022-10-12T14:15:36.889Z,100212.31
2022-10-12T14:18:26.664Z,100214.84
2022-10-12T14:21:06.737Z,100221.44
2022-10-12T14:23:36.418Z,100213.63
2022-10-12T14:26:06.359Z,100217.50
2022-10-12T14:28:36.099Z,100225.78
2022-10-12T14:31:05.714Z,100224.78
2022-10-12T14:33:35.260Z,100227.16
2022-10-12T14:36:16.717Z,100222.75
2022-10-12T14:38:47.744Z,100226.50
2022-10-12T14:41:44.723Z,100231.53
2022-10-12T14:44:16.064Z,100220.91
2022-10-12T14:46:51.442Z,100225.31
2022-10-12T14:49:22.896Z,100224.31
2022-10-12T14:51:55.396Z,100217.56
2022-10-12T14:54:25.069Z,100224.13
2022-10-12T14:56:55.124Z,100225.47
2022-10-12T14:59:24.709Z,100230.72
2022-10-12T15:01:54.731Z,100231.91
2022-10-12T15:04:24.643Z,100232.22
2022-10-12T15:06:55.854Z,100222.44
2022-10-12T15:09:25.475Z,100233.09
2022-10-12T15:11:55.614Z,100233.59
2022-10-12T15:14:25.679Z,100230.75
2022-10-12T15:16:57.892Z,100239.50
2022-10-12T15:19:27.565Z,100239.66
2022-10-12T15:21:58.611Z,100245.41
2022-10-12T15:24:28.217Z,100241.72
2022-10-12T15:26:58.075Z,100252.88
2022-10-12T15:29:28.248Z,100257.56
2022-10-12T15:31:59.517Z,100249.31
2022-10-12T15:34:30.056Z,100260.25
2022-10-12T15:37:04.159Z,100256.41
2022-10-12T15:39:39.601Z,100259.09
2022-10-12T15:42:09.308Z,100259.25
2022-10-12T15:44:40.507Z,100258.56
2022-10-12T15:47:11.415Z,100255.88
2022-10-12T15:49:41.628Z,100248.44
2022-10-12T15:52:12.983Z,100258.56
2022-10-12T15:54:46.838Z,100255.19
2022-10-12T15:57:18.425Z,100256.38
2022-10-12T15:59:48.885Z,100256.53
2022-10-12T16:02:21.017Z,100265.78
2022-10-12T16:04:50.588Z,100269.66
2022-10-12T16:07:21.934Z,100263.56
2022-10-12T16:09:51.701Z,100261.22
2022-10-12T16:12:21.519Z,100260.84
2022-10-12T16:14:51.572Z,100262.22
2022-10-12T16:17:21.548Z,100269.44
2022-10-12T16:19:51.168Z,100272.66
2022-10-12T16:22:22.219Z,100276.84
2022-10-12T16:24:52.174Z,100284.44
2022-10-12T16:27:21.834Z,100288.47
2022-10-12T16:29:51.733Z,100291.31
2022-10-12T16:32:21.623Z,100292.31
2022-10-12T16:34:51.660Z,100300.25
2022-10-12T16:37:22.790Z,100291.44
2022-10-12T16:39:53.865Z,100295.84
2022-10-12T16:42:23.859Z,100295.63
2022-10-12T16:44:53.594Z,100304.22
2022-10-12T16:47:23.939Z,100295.75
2022-10-12T16:49:53.950Z,100300.47
2022-10-12T16:52:25.589Z,100301.13
2022-10-12T16:54:55.974Z,100306.84
2022-10-12T16:57:25.730Z,100303.44
2022-10-12T16:59:55.328Z,100298.03
2022-10-12T17:02:24.971Z,100299.03
2022-10-12T17:04:54.682Z,100299.34
2022-10-12T17:07:25.711Z,100305.34
2022-10-12T17:09:56.367Z,100308.38
2022-10-12T17:12:27.578Z,100307.28
2022-10-12T17:14:57.912Z,100300.72
2022-10-12T17:17:27.915Z,100307.69
2022-10-12T17:19:57.734Z,100315.63
2022-10-12T17:22:28.993Z,100310.91
2022-10-12T17:24:58.689Z,100311.22
2022-10-12T17:27:32.078Z,100308.69
2022-10-12T17:30:02.048Z,100314.06
2022-10-12T17:32:31.928Z,100309.28
2022-10-12T17:35:01.448Z,100313.84
2022-10-12T17:37:32.476Z,100309.47
2022-10-12T17:40:02.217Z,100315.00
2022-10-12T17:42:31.777Z,100312.63
2022-10-12T17:45:01.466Z,100320.16
2022-10-12T17:47:31.269Z,100320.97
2022-10-12T17:50:01.065Z,100322.81
2022-10-12T17:52:37.866Z,100335.75
2022-10-12T17:55:15.203Z,100324.66
2022-10-12T17:57:53.899Z,100335.75
2022-10-12T18:00:23.583Z,100333.69
2022-10-12T18:02:53.316Z,100334.84
2022-10-12T18:05:22.914Z,100332.97
2022-10-12T18:07:53.903Z,100328.59
2022-10-12T18:10:26.122Z,100328.59
2022-10-12T18:12:58.087Z,100329.06
2022-10-12T18:15:28.020Z,100321.75
2022-10-12T18:17:57.664Z,100318.22
2022-10-12T18:20:29.340Z,100325.75
2022-10-12T18:23:00.451Z,100319.69
2022-10-12T18:25:31.068Z,100320.00
2022-10-12T18:28:00.704Z,100323.84
2022-10-12T18:30:31.655Z,100330.22
2022-10-12T18:33:02.010Z,100327.69
2022-10-12T18:35:35.314Z,100322.75
2022-10-12T18:38:06.253Z,100323.22
2022-10-12T18:40:41.155Z,100323.84
2022-10-12T18:43:11.831Z,100325.28
2022-10-12T18:45:45.078Z,100320.91
2022-10-12T18:48:15.176Z,100316.28
2022-10-12T18:50:44.808Z,100317.69
2022-10-12T18:53:15.925Z,100326.59
2022-10-12T18:55:45.436Z,100327.22
2022-10-12T18:58:15.125Z,100343.41
2022-10-12T19:00:44.929Z,100332.22
2022-10-12T19:03:14.611Z,100340.72
2022-10-12T19:05:44.324Z,100347.03
2022-10-12T19:08:15.255Z,100352.63
2022-10-12T19:10:45.083Z,100350.25
2022-10-12T19:13:15.428Z,100358.47
2022-10-12T19:15:45.530Z,100365.28
2022-10-12T19:18:15.214Z,100362.59
2022-10-12T19:20:44.779Z,100359.22
2022-10-12T19:23:17.905Z,100358.63
2022-10-12T19:25:48.191Z,100360.63
2022-10-12T19:28:17.851Z,100358.09
2022-10-12T19:30:47.667Z,100349.75
2022-10-12T19:33:17.251Z,100361.72
2022-10-12T19:35:46.864Z,100365.97
2022-10-12T19:38:17.908Z,100371.59
2022-10-12T19:40:47.757Z,100367.22
2022-10-12T19:43:17.373Z,100372.59
2022-10-12T19:45:46.969Z,100374.16
2022-10-12T19:48:16.634Z,100374.16
2022-10-12T19:50:46.402Z,100368.75
2022-10-12T19:53:17.496Z,100374.63
2022-10-12T19:55:48.569Z,100378.84
2022-10-12T19:58:18.198Z,100369.81
2022-10-12T20:00:51.270Z,100383.56
2022-10-12T20:03:21.160Z,100382.31
2022-10-12T20:05:50.746Z,100382.88
2022-10-12T20:08:21.977Z,100383.19
2022-10-12T20:10:51.685Z,100385.44
2022-10-12T20:13:21.723Z,100386.84
2022-10-12T20:15:52.910Z,100387.59
2022-10-12T20:18:22.685Z,100390.41
2022-10-12T20:20:52.338Z,100382.06
2022-10-12T20:23:23.533Z,100383.63
2022-10-12T20:25:54.223Z,100388.28
2022-10-12T20:28:23.782Z,100388.28
2022-10-12T20:30:53.707Z,100386.84
2022-10-12T20:33:23.335Z,100386.84
2022-10-12T20:35:52.980Z,100397.88
2022-10-12T20:38:24.715Z,100394.34
2022-10-12T20:41:02.244Z,100395.03
2022-10-12T20:43:31.947Z,100400.41
2022-10-12T20:46:02.959Z,100395.19
2022-10-12T20:48:34.428Z,100403.53
2022-10-12T20:51:06.209Z,100403.06
2022-10-12T20:53:37.888Z,100411.56
2022-10-12T20:56:08.765Z,100411.25
2022-10-12T20:58:38.399Z,100419.13
2022-10-12T21:01:09.674Z,100413.91
2022-10-12T21:03:39.565Z,100415.00
2022-10-12T21:06:10.720Z,100423.16
2022-10-12T21:08:41.803Z,100419.09
2022-10-12T21:11:11.912Z,100413.38
2022-10-12T21:13:44.493Z,100416.59
2022-10-12T21:16:15.471Z,100424.06
2022-10-12T21:18:46.480Z,100426.41
2022-10-12T21:21:17.237Z,100421.28
2022-10-12T21:23:53.171Z,100424.00
2022-10-12T21:26:23.605Z,100421.19
2022-10-12T21:28:53.701Z,100432.25
2022-10-12T21:31:29.477Z,100431.31
2022-10-12T21:34:02.311Z,100436.44
2022-10-12T21:36:32.457Z,100436.63
2022-10-12T21:39:03.947Z,100441.63
2022-10-12T21:41:34.128Z,100442.53
2022-10-12T21:44:13.612Z,100442.19
2022-10-12T21:46:43.369Z,100447.09
2022-10-12T21:49:13.221Z,100439.31
2022-10-12T21:51:42.999Z,100443.97
2022-10-12T21:54:14.213Z,100447.28
2022-10-12T21:56:43.817Z,100435.63
2022-10-12T21:59:13.371Z,100440.13
2022-10-12T22:01:43.018Z,100439.28
2022-10-12T22:04:13.906Z,100438.94
2022-10-12T22:06:44.365Z,100437.34
2022-10-12T22:09:16.975Z,100428.50
2022-10-12T22:11:47.918Z,100430.09
2022-10-12T22:14:18.509Z,100424.75
2022-10-12T22:16:48.486Z,100421.94
2022-10-12T22:19:19.552Z,100422.41
2022-10-12T22:21:49.797Z,100420.84
2022-10-12T22:24:31.018Z,100421.22
2022-10-12T22:27:01.425Z,100411.47
2022-10-12T22:29:31.015Z,100415.88
2022-10-12T22:32:03.903Z,100419.88
2022-10-12T22:34:33.442Z,100420.59
2022-10-12T22:37:03.349Z,100419.38
2022-10-12T22:39:34.247Z,100412.94
2022-10-12T22:42:03.741Z,100417.56
2022-10-12T22:44:33.380Z,100416.50
2022-10-12T22:47:03.004Z,100404.69
2022-10-12T22:49:32.552Z,100406.63
2022-10-12T22:52:02.240Z,100413.06
2022-10-12T22:54:32.008Z,100411.47
2022-10-12T22:57:02.926Z,100412.34
2022-10-12T22:59:32.570Z,100412.81
2022-10-12T23:02:02.190Z,100414.19
2022-10-12T23:04:31.799Z,100411.38
2022-10-12T23:07:01.454Z,100414.88
2022-10-12T23:09:30.998Z,100416.94
2022-10-12T23:12:01.116Z,100419.88
2022-10-12T23:14:32.676Z,100420.69
2022-10-12T23:17:02.667Z,100427.75
2022-10-12T23:19:32.279Z,100432.53
2022-10-12T23:22:01.954Z,100432.34
2022-10-12T23:24:31.623Z,100436.44
2022-10-12T23:27:01.197Z,100434.69
2022-10-12T23:29:32.198Z,100430.56
2022-10-12T23:32:01.821Z,100430.25
2022-10-12T23:34:31.563Z,100428.28
2022-10-12T23:37:01.189Z,100441.75
2022-10-12T23:39:30.763Z,100435.09
2022-10-12T23:42:00.922Z,100433.69
2022-10-12T23:44:30.515Z,100443.97
2022-10-12T23:47:01.538Z,100442.44
2022-10-12T23:49:31.241Z,100441.22
2022-10-12T23:52:00.839Z,100449.22
2022-10-12T23:54:30.509Z,100450.38
2022-10-12T23:57:00.267Z,100444.38
2022-10-12T23:59:29.832Z,100445.75
